Time;durP1;ratioP1;P1;durP2;ratioP2;P2;SDS_P1;SDS_P2;PMS_P1;PMS_P2;Temp;Humidity;BMP_temperature;BMP_pressure;BME280_temperature;BME280_humidity;BME280_pressure;Samples;Min_cycle;Max_cycle;Signal;HPM_P1;HPM_P2
2022/06/13 00:01:13;;;;;;;13.20;4.63;;;;;;;16.10;82.55;96220.00;5095769;28;20071;-63
2022/06/13 00:03:39;;;;;;;10.10;5.60;;;;;;;16.00;82.77;96222.41;5095711;28;20549;-62
2022/06/13 00:06:05;;;;;;;12.00;5.10;;;;;;;15.97;83.29;96212.06;5095690;28;20110;-62
2022/06/13 00:08:31;;;;;;;8.68;4.60;;;;;;;15.91;83.28;96228.25;5095521;28;20027;-61
2022/06/13 00:10:56;;;;;;;7.35;5.05;;;;;;;15.82;85.07;96227.06;5095521;28;20149;-62
2022/06/13 00:13:22;;;;;;;11.27;5.15;;;;;;;15.79;84.99;96217.56;5095436;28;20085;-61
2022/06/13 00:15:47;;;;;;;10.45;5.32;;;;;;;15.86;85.01;96214.53;5095251;28;20110;-62
2022/06/13 00:18:13;;;;;;;7.90;4.93;;;;;;;15.87;84.47;96222.31;5095448;28;20378;-62
2022/06/13 00:20:38;;;;;;;9.43;5.18;;;;;;;15.84;84.41;96216.41;5095478;28;20027;-62
2022/06/13 00:23:04;;;;;;;10.25;4.82;;;;;;;15.89;84.67;96219.59;5095117;28;20031;-62
2022/06/13 00:25:30;;;;;;;9.18;4.40;;;;;;;15.83;83.76;96222.63;5094989;28;20551;-62
2022/06/13 00:27:56;;;;;;;7.57;4.90;;;;;;;15.84;84.49;96222.53;5095261;28;20023;-62
2022/06/13 00:30:21;;;;;;;14.77;4.60;;;;;;;15.88;84.23;96220.53;5095115;28;20563;-62
2022/06/13 00:32:47;;;;;;;12.50;5.28;;;;;;;15.81;84.39;96208.69;5094956;28;20027;-62
2022/06/13 00:35:12;;;;;;;9.13;4.50;;;;;;;15.80;84.34;96213.13;5095147;28;20016;-62
2022/06/13 00:37:38;;;;;;;12.70;5.55;;;;;;;15.79;84.39;96203.53;5095071;28;20012;-62
2022/06/13 00:40:05;;;;;;;14.35;5.40;;;;;;;15.78;84.16;96205.31;5095046;28;20040;-62
2022/06/13 00:42:30;;;;;;;5.55;5.00;;;;;;;15.77;84.06;96211.53;5094991;28;20494;-62
2022/06/13 00:45:27;;;;;;;6.40;5.22;;;;;;;15.82;84.19;96195.41;5094858;28;20105;-62
2022/06/13 00:47:55;;;;;;;8.15;5.07;;;;;;;15.86;83.88;96193.44;5092795;28;20123;-63
2022/06/13 00:50:31;;;;;;;11.27;5.68;;;;;;;15.94;83.89;96195.56;5094754;28;20053;-62
2022/06/13 00:53:13;;;;;;;13.85;5.68;;;;;;;15.89;84.16;96196.69;5094664;28;20058;-62
2022/06/13 00:55:56;;;;;;;9.13;5.85;;;;;;;15.86;84.32;96196.06;5094729;28;20100;-62
2022/06/13 00:58:23;;;;;;;5.43;4.97;;;;;;;15.92;84.02;96185.09;5094606;28;20535;-62
2022/06/13 01:00:51;;;;;;;9.35;5.63;;;;;;;15.94;83.99;96185.00;5094565;28;20028;-62
2022/06/13 01:03:17;;;;;;;10.73;5.28;;;;;;;15.96;84.56;96184.00;5094488;28;20024;-62
2022/06/13 01:05:47;;;;;;;11.13;5.97;;;;;;;15.87;84.94;96181.94;5094550;28;20050;-62
2022/06/13 01:08:14;;;;;;;10.48;5.38;;;;;;;15.98;84.18;96183.91;5094491;28;20047;-62
2022/06/13 01:13:41;;;;;;;6.63;5.63;;;;;;;16.07;84.21;96180.63;5094263;28;20534;-62
2022/06/13 01:16:30;;;;;;;7.18;5.30;;;;;;;16.03;84.44;96168.59;5094140;28;20102;-62
2022/06/13 01:18:59;;;;;;;6.50;5.75;;;;;;;16.02;84.27;96167.75;5094247;28;20032;-62
2022/06/13 01:21:48;;;;;;;9.23;5.18;;;;;;;16.12;83.13;96156.59;5094107;28;20035;-62
2022/06/13 01:24:47;;;;;;;6.47;5.88;;;;;;;16.19;83.34;96168.44;5094284;28;20038;-61
2022/06/13 01:27:31;;;;;;;7.10;4.90;;;;;;;16.21;82.16;96165.69;5094288;28;20032;-62
2022/06/13 01:30:05;;;;;;;6.43;5.10;;;;;;;16.27;81.81;96171.41;5094037;28;20042;-62
2022/06/13 01:32:43;;;;;;;9.20;4.78;;;;;;;16.31;80.73;96163.28;5093969;28;20027;-62
2022/06/13 01:35:41;;;;;;;9.13;3.97;;;;;;;16.38;81.20;96162.75;5093230;28;20494;-61
2022/06/13 01:38:12;;;;;;;5.38;4.82;;;;;;;16.44;80.73;96160.66;5093960;28;20028;-62
2022/06/13 01:41:06;;;;;;;6.05;4.97;;;;;;;16.47;81.37;96155.19;5093925;28;20067;-62
2022/06/13 01:44:06;;;;;;;6.22;4.55;;;;;;;16.44;79.80;96161.53;5093801;28;20043;-62
2022/06/13 01:46:41;;;;;;;5.90;4.88;;;;;;;16.48;79.30;96163.00;5093780;28;20059;-62
2022/06/13 01:49:56;;;;;;;6.57;5.03;;;;;;;16.62;79.15;96162.03;5093767;28;20024;-62
2022/06/13 01:52:33;;;;;;;5.50;4.47;;;;;;;16.80;77.61;96161.75;5086777;28;20039;-62
2022/06/13 01:55:20;;;;;;;5.97;4.50;;;;;;;16.89;78.73;96174.28;5093550;28;20036;-62
2022/06/13 01:57:54;;;;;;;9.68;4.80;;;;;;;16.92;78.17;96170.59;5093674;28;20020;-62
2022/06/13 02:00:27;;;;;;;8.52;4.65;;;;;;;16.99;77.79;96173.66;5093621;28;20024;-62
2022/06/13 02:03:14;;;;;;;7.35;4.85;;;;;;;17.10;77.44;96162.38;5093528;28;20023;-62
2022/06/13 02:05:46;;;;;;;6.50;4.22;;;;;;;17.13;78.09;96162.16;5093508;28;20032;-62
2022/06/13 02:08:17;;;;;;;4.60;4.03;;;;;;;17.22;75.96;96163.28;5093460;28;20024;-63
2022/06/13 02:10:49;;;;;;;11.48;5.32;;;;;;;17.30;76.48;96168.88;5093352;28;20024;-62
2022/06/13 02:13:25;;;;;;;7.35;4.13;;;;;;;17.41;75.25;96166.31;5093356;28;20497;-62
2022/06/13 02:15:55;;;;;;;6.70;4.63;;;;;;;17.47;76.24;96170.31;5093173;28;20032;-62
2022/06/13 02:18:28;;;;;;;15.85;5.82;;;;;;;17.51;74.82;96168.28;5093457;28;20466;-62
2022/06/13 02:20:58;;;;;;;6.95;4.47;;;;;;;17.59;74.95;96180.94;5092150;28;20056;-62
2022/06/13 02:23:29;;;;;;;6.50;4.95;;;;;;;17.66;73.94;96176.91;5093323;28;20025;-62
2022/06/13 02:26:03;;;;;;;7.28;4.55;;;;;;;17.78;73.13;96178.66;5093211;28;20107;-62
2022/06/13 02:28:38;;;;;;;6.82;4.22;;;;;;;17.80;72.59;96171.47;5093286;28;20393;-61
2022/06/13 02:31:34;;;;;;;8.18;4.32;;;;;;;17.83;73.29;96162.47;5093159;28;20478;-62
2022/06/13 02:34:18;;;;;;;8.00;4.43;;;;;;;17.94;72.53;96167.78;5093073;28;20062;-62
2022/06/13 02:36:46;;;;;;;7.95;4.40;;;;;;;18.01;72.08;96164.69;5093074;28;20039;-62
2022/06/13 02:39:21;;;;;;;7.80;4.47;;;;;;;18.11;71.94;96173.66;5093155;28;20024;-63
2022/06/13 02:41:54;;;;;;;7.28;4.25;;;;;;;18.15;70.38;96167.19;5093069;28;20036;-63
2022/06/13 02:44:31;;;;;;;4.35;3.95;;;;;;;18.32;70.52;96186.25;5093025;28;20477;-62
2022/06/13 02:47:04;;;;;;;10.88;4.22;;;;;;;18.40;69.54;96183.03;5093979;28;20032;-62
2022/06/13 02:49:40;;;;;;;8.18;4.15;;;;;;;18.42;72.42;96167.84;5097184;28;20052;-63
2022/06/13 02:52:35;;;;;;;6.13;4.78;;;;;;;18.37;71.95;96185.91;5097008;28;20027;-63
2022/06/13 02:55:07;;;;;;;7.15;4.00;;;;;;;18.39;70.58;96190.13;5062448;28;20115;-62
2022/06/13 02:57:57;;;;;;;8.10;4.55;;;;;;;18.43;70.07;96196.88;5096963;28;20497;-62
2022/06/13 03:00:52;;;;;;;4.90;4.13;;;;;;;18.49;70.00;96192.06;5097063;28;20099;-62
2022/06/13 03:03:41;;;;;;;9.45;4.07;;;;;;;18.55;70.38;96192.44;5096846;28;20047;-62
2022/06/13 03:06:16;;;;;;;8.48;4.18;;;;;;;18.62;68.64;96194.63;5055652;28;20032;-62
2022/06/13 03:08:56;;;;;;;9.38;4.40;;;;;;;18.70;69.04;96194.91;5095456;28;20432;-62
2022/06/13 03:11:41;;;;;;;5.35;4.25;;;;;;;18.77;69.23;96189.97;5096820;28;20031;-62
2022/06/13 03:14:43;;;;;;;5.03;4.15;;;;;;;18.79;68.06;96190.69;5096582;28;20380;-62
2022/06/13 03:17:20;;;;;;;8.82;4.07;;;;;;;18.90;68.28;96198.66;5096447;28;20058;-62
2022/06/13 03:20:08;;;;;;;4.30;3.67;;;;;;;18.92;68.72;96193.22;5096605;28;20020;-62
2022/06/13 03:22:58;;;;;;;6.97;3.60;;;;;;;18.93;68.30;96194.91;5096568;28;20032;-63
2022/06/13 03:25:45;;;;;;;6.47;4.22;;;;;;;18.95;68.55;96187.69;5096722;28;20069;-62
2022/06/13 03:28:14;;;;;;;9.75;4.60;;;;;;;18.98;67.18;96198.06;5096453;28;20069;-62
2022/06/13 03:30:47;;;;;;;9.88;3.70;;;;;;;19.03;65.97;96185.28;5096328;28;20091;-62
2022/06/13 03:36:12;;;;;;;5.93;3.85;;;;;;;19.14;67.40;96205.69;5096338;28;20394;-63
2022/06/13 03:38:44;;;;;;;5.72;3.80;;;;;;;19.17;66.53;96196.66;5096285;28;20515;-63
2022/06/13 03:41:15;;;;;;;7.20;4.28;;;;;;;19.24;66.77;96202.31;5096256;28;20028;-63
2022/06/13 03:43:46;;;;;;;4.65;4.15;;;;;;;19.28;68.56;96199.31;5096189;28;20367;-62
2022/06/13 03:46:15;;;;;;;6.53;4.05;;;;;;;19.27;67.19;96196.78;5096092;28;20389;-63
2022/06/13 03:49:16;;;;;;;7.57;4.10;;;;;;;19.28;69.81;96201.09;5095958;28;20020;-63
2022/06/13 03:51:43;;;;;;;;;;;;;;;19.24;66.78;96197.88;5014461;28;20037;-63
2022/06/13 03:54:13;;;;;;;6.38;4.20;;;;;;;19.25;67.97;96196.91;5079604;28;20003;-63
2022/06/13 03:57:06;;;;;;;5.13;4.18;;;;;;;19.30;67.31;96197.34;5095896;28;20490;-62
2022/06/13 03:59:56;;;;;;;5.40;4.60;;;;;;;19.37;68.52;96202.19;5083845;28;20061;-63
2022/06/13 04:02:28;;;;;;;8.57;4.80;;;;;;;19.40;68.83;96208.09;5095719;28;20036;-63
2022/06/13 04:04:54;;;;;;;7.25;4.63;;;;;;;19.41;70.25;96207.13;5095813;28;20385;-62
2022/06/13 04:07:21;;;;;;;5.30;4.30;;;;;;;19.40;70.54;96217.84;5095670;28;20024;-62
2022/06/13 04:09:55;;;;;;;8.60;4.72;;;;;;;19.45;69.02;96199.78;5095590;28;20020;-62
2022/06/13 04:12:35;;;;;;;6.78;3.95;;;;;;;19.50;66.23;96200.25;5095523;28;20028;-62
2022/06/13 04:15:35;;;;;;;4.35;3.92;;;;;;;19.51;69.02;96193.97;5095723;28;20466;-63
2022/06/13 04:18:03;;;;;;;4.50;4.03;;;;;;;19.57;66.52;96204.09;5095438;28;20052;-63
2022/06/13 04:20:59;;;;;;;6.80;3.65;;;;;;;19.65;65.83;96207.94;5095450;28;20031;-63
2022/06/13 04:23:36;;;;;;;6.60;3.60;;;;;;;19.72;67.26;96206.50;5095356;28;20112;-62
2022/06/13 04:26:10;;;;;;;6.43;3.92;;;;;;;19.81;65.48;96207.56;5095378;28;20382;-62
2022/06/13 04:29:04;;;;;;;4.63;4.10;;;;;;;19.88;66.28;96208.75;5095217;28;20024;-63
2022/06/13 04:31:32;;;;;;;4.70;3.95;;;;;;;19.93;66.03;96217.16;5095207;28;20490;-63
2022/06/13 04:34:22;;;;;;;5.80;4.03;;;;;;;20.06;65.51;96218.84;5095059;28;20083;-62
2022/06/13 04:36:49;;;;;;;4.43;3.85;;;;;;;20.19;65.23;96224.00;5095140;28;20036;-63
2022/06/13 04:39:20;;;;;;;5.13;3.97;;;;;;;20.25;65.89;96228.78;5095064;28;20043;-63
2022/06/13 04:41:48;;;;;;;7.20;3.60;;;;;;;20.30;64.54;96226.63;5095119;28;20486;-63
2022/06/13 04:44:21;;;;;;;8.85;3.97;;;;;;;20.35;64.94;96230.69;5095045;28;20028;-62
2022/06/13 04:46:47;;;;;;;7.32;4.15;;;;;;;20.35;66.84;96228.91;5094979;28;20060;-63
2022/06/13 04:49:35;;;;;;;5.07;4.10;;;;;;;20.40;68.62;96229.34;5094834;28;20446;-62
2022/06/13 04:52:06;;;;;;;8.98;3.90;;;;;;;20.26;66.92;96227.81;5094867;28;20032;-62
2022/06/13 04:54:41;;;;;;;4.93;4.13;;;;;;;20.31;67.87;96227.44;5094915;28;20095;-62
2022/06/13 04:57:14;;;;;;;9.13;4.00;;;;;;;20.33;66.45;96222.84;5094722;28;20024;-63
2022/06/13 04:59:42;;;;;;;7.60;3.85;;;;;;;20.27;66.85;96237.50;5094833;28;20028;-63
2022/06/13 05:02:22;;;;;;;4.50;3.38;;;;;;;20.25;65.11;96231.44;5094735;28;20112;-62
2022/06/13 05:04:48;;;;;;;5.07;3.80;;;;;;;20.33;63.81;96237.00;5094578;28;20028;-62
2022/06/13 05:07:17;;;;;;;8.68;4.00;;;;;;;20.43;64.08;96229.09;5094554;28;20424;-62
2022/06/13 05:09:52;;;;;;;4.90;3.35;;;;;;;20.74;64.57;96230.97;5094252;28;20024;-63
2022/06/13 05:12:21;;;;;;;4.97;3.35;;;;;;;21.24;62.57;96233.94;5094295;28;20489;-63
2022/06/13 05:14:59;;;;;;;5.78;3.30;;;;;;;21.84;61.50;96238.53;5094239;28;20489;-63
2022/06/13 05:18:00;;;;;;;7.88;3.53;;;;;;;22.14;58.40;96242.09;5094172;28;20153;-64
2022/06/13 05:20:38;;;;;;;6.75;3.00;;;;;;;22.31;59.86;96242.38;5076705;28;20102;-63
2022/06/13 05:23:10;;;;;;;6.25;3.55;;;;;;;22.46;58.65;96238.31;5094232;28;20054;-63
2022/06/13 05:25:45;;;;;;;7.80;3.20;;;;;;;22.59;57.38;96250.56;5094303;28;20513;-63
2022/06/13 05:28:16;;;;;;;3.42;3.10;;;;;;;23.05;57.76;96249.91;5094069;28;20486;-64
2022/06/13 05:30:44;;;;;;;4.35;3.17;;;;;;;23.64;56.41;96251.56;5094086;28;20028;-63
2022/06/13 05:33:16;;;;;;;4.82;3.17;;;;;;;24.06;54.75;96243.06;5093849;28;20485;-64
2022/06/13 05:35:43;;;;;;;7.78;3.33;;;;;;;24.15;55.29;96245.84;5093929;28;20031;-64
2022/06/13 05:38:19;;;;;;;3.83;3.38;;;;;;;23.96;54.70;96248.44;5093886;28;20023;-64
2022/06/13 05:40:45;;;;;;;6.75;3.35;;;;;;;23.44;54.21;96254.31;5093887;28;20024;-64
2022/06/13 05:43:13;;;;;;;4.07;2.88;;;;;;;23.23;55.36;96256.19;5093918;28;20024;-64
2022/06/13 05:45:42;;;;;;;9.07;3.17;;;;;;;22.85;55.82;96245.47;5093883;28;20024;-64
2022/06/13 05:48:14;;;;;;;9.40;3.63;;;;;;;22.65;56.40;96236.66;5093934;28;20103;-63
2022/06/13 05:50:41;;;;;;;3.85;3.47;;;;;;;22.49;58.06;96261.19;5093856;28;20081;-63
2022/06/13 05:53:06;;;;;;;4.85;3.78;;;;;;;22.39;59.97;96260.34;5093783;28;20031;-63
2022/06/13 05:55:34;;;;;;;4.38;3.30;;;;;;;22.34;59.80;96253.59;5093614;28;20365;-64
2022/06/13 05:58:00;;;;;;;11.10;4.28;;;;;;;22.37;60.58;96243.66;5093599;28;20028;-63
2022/06/13 06:00:30;;;;;;;9.38;5.63;;;;;;;22.33;61.14;96254.59;5093528;28;20424;-63
2022/06/13 06:02:55;;;;;;;8.00;3.80;;;;;;;22.29;61.13;96255.84;5093585;28;20028;-63
2022/06/13 06:05:21;;;;;;;9.07;5.43;;;;;;;22.15;59.80;96242.94;5093544;28;20261;-63
2022/06/13 06:07:47;;;;;;;5.95;4.85;;;;;;;22.09;61.13;96252.31;5093491;28;20024;-63
2022/06/13 06:10:30;;;;;;;4.07;3.60;;;;;;;22.07;59.66;96268.41;5093466;28;20016;-63
2022/06/13 06:12:56;;;;;;;5.90;3.72;;;;;;;22.10;61.09;96267.31;5093245;28;20028;-62
2022/06/13 06:15:22;;;;;;;8.65;3.90;;;;;;;22.06;61.97;96276.53;5093469;28;20028;-63
2022/06/13 06:17:47;;;;;;;4.28;3.60;;;;;;;22.01;62.34;96268.13;5093201;28;20044;-63
2022/06/13 06:20:18;;;;;;;10.80;5.15;;;;;;;22.06;62.93;96271.22;5093438;28;20031;-63
2022/06/13 06:22:44;;;;;;;10.90;7.30;;;;;;;22.09;66.02;96270.94;5092697;28;20042;-64
2022/06/13 06:25:10;;;;;;;7.32;4.53;;;;;;;22.11;65.41;96287.63;5093261;28;20031;-63
2022/06/13 06:27:35;;;;;;;7.65;4.40;;;;;;;22.07;65.40;96287.06;5093100;28;20095;-64
2022/06/13 06:30:01;;;;;;;5.93;3.58;;;;;;;22.02;64.31;96283.97;5093123;28;20012;-63
2022/06/13 06:32:26;;;;;;;3.90;3.50;;;;;;;21.99;63.34;96276.25;5093050;28;20020;-64
2022/06/13 06:34:52;;;;;;;6.22;4.28;;;;;;;22.04;63.79;96279.38;5093144;28;20023;-63
2022/06/13 06:37:18;;;;;;;9.23;4.85;;;;;;;22.08;64.48;96280.78;5093128;28;20028;-63
2022/06/13 06:39:43;;;;;;;10.63;4.60;;;;;;;22.11;64.94;96276.13;5093198;28;20101;-64
2022/06/13 06:42:10;;;;;;;8.63;4.35;;;;;;;22.13;67.55;96277.69;5093082;28;20055;-64
2022/06/13 06:44:35;;;;;;;5.32;4.10;;;;;;;22.12;68.94;96281.31;5093149;28;20020;-63
2022/06/13 06:47:01;;;;;;;7.57;3.60;;;;;;;21.98;64.29;96290.56;5093143;28;20103;-62
2022/06/13 06:49:27;;;;;;;5.95;3.38;;;;;;;21.84;62.99;96291.78;5092945;28;20044;-63
2022/06/13 06:51:53;;;;;;;7.30;4.10;;;;;;;21.77;62.44;96299.47;5092985;28;20016;-64
2022/06/13 06:59:54;;;;;;;6.07;3.83;;;;;;;21.53;64.21;96295.28;5093251;28;20061;-63
2022/06/13 07:02:23;;;;;;;4.40;3.78;;;;;;;21.52;62.32;96290.09;5092788;28;20020;-64
2022/06/13 07:04:54;;;;;;;4.10;3.70;;;;;;;21.53;62.48;96291.75;5092803;28;20377;-62
2022/06/13 07:07:21;;;;;;;6.00;3.70;;;;;;;21.54;62.56;96296.09;5092877;28;20024;-63
2022/06/13 07:09:47;;;;;;;7.25;4.20;;;;;;;21.60;62.42;96298.22;5092959;28;20426;-63
2022/06/13 07:12:13;;;;;;;5.28;3.85;;;;;;;21.69;63.08;96301.91;5092748;28;20016;-63
2022/06/13 07:14:39;;;;;;;5.97;4.30;;;;;;;21.75;64.31;96296.09;5092644;28;20028;-63
2022/06/13 07:17:07;;;;;;;6.32;4.25;;;;;;;21.71;64.92;96295.47;5092578;28;20055;-64
2022/06/13 07:19:33;;;;;;;6.80;3.63;;;;;;;21.68;62.89;96300.22;5092777;28;20032;-63
2022/06/13 07:22:00;;;;;;;6.10;3.60;;;;;;;21.65;63.51;96303.16;5092761;28;20025;-63
2022/06/13 07:24:27;;;;;;;6.63;4.25;;;;;;;21.53;62.84;96305.06;5092648;28;20111;-63
2022/06/13 07:26:52;;;;;;;6.22;4.05;;;;;;;21.43;64.24;96305.84;5092635;28;20043;-63
2022/06/13 07:29:18;;;;;;;3.33;3.03;;;;;;;21.32;63.31;96312.13;5092645;28;20486;-63
2022/06/13 07:31:48;;;;;;;5.82;4.38;;;;;;;21.20;64.30;96305.19;5092656;28;20023;-63
2022/06/13 07:34:18;;;;;;;8.93;3.90;;;;;;;21.11;63.87;96311.28;5095446;28;20024;-63
2022/06/13 07:36:45;;;;;;;8.63;3.83;;;;;;;21.03;64.09;96309.25;5096323;28;20475;-63
2022/06/13 07:39:11;;;;;;;5.35;3.72;;;;;;;20.96;64.33;96312.41;5096213;28;20028;-62
2022/06/13 07:41:39;;;;;;;4.60;3.78;;;;;;;20.84;65.41;96321.41;5096068;28;20078;-63
2022/06/13 07:44:07;;;;;;;3.85;3.40;;;;;;;20.75;66.07;96328.34;5096105;28;20068;-64
2022/06/13 07:46:33;;;;;;;9.65;3.83;;;;;;;20.67;66.51;96322.81;5096131;28;20028;-63
2022/06/13 07:49:00;;;;;;;7.05;3.85;;;;;;;20.61;65.30;96331.28;5096022;28;20044;-63
2022/06/13 07:51:26;;;;;;;5.00;3.85;;;;;;;20.56;66.60;96337.81;5095971;28;20448;-63
2022/06/13 07:53:53;;;;;;;5.90;4.10;;;;;;;20.50;67.46;96332.19;5095939;28;20469;-63
2022/06/13 07:56:23;;;;;;;4.85;4.03;;;;;;;20.54;67.26;96330.94;5095954;28;20024;-64
2022/06/13 07:58:51;;;;;;;7.88;4.75;;;;;;;20.55;67.78;96335.28;5095938;28;20024;-63
2022/06/13 08:01:18;;;;;;;5.53;3.92;;;;;;;20.54;66.87;96333.59;5095822;28;20115;-63
2022/06/13 08:03:44;;;;;;;5.38;4.10;;;;;;;20.56;68.69;96332.50;5095686;28;20513;-63
2022/06/13 08:06:10;;;;;;;7.47;4.20;;;;;;;20.55;67.66;96340.59;5095697;28;20047;-63
2022/06/13 08:08:36;;;;;;;5.47;4.50;;;;;;;20.55;67.88;96333.47;5095739;28;20428;-64
2022/06/13 08:11:06;;;;;;;5.93;4.35;;;;;;;20.60;66.44;96330.44;5095741;28;20024;-64
2022/06/13 08:13:33;;;;;;;5.90;4.50;;;;;;;20.59;68.21;96336.75;5095453;28;20035;-64
2022/06/13 08:15:59;;;;;;;4.70;4.15;;;;;;;20.60;67.83;96341.06;5095175;28;20249;-63
2022/06/13 08:18:25;;;;;;;5.07;4.32;;;;;;;20.62;68.06;96343.59;5095583;28;20031;-64
2022/06/13 08:20:50;;;;;;;7.75;4.10;;;;;;;20.67;68.05;96342.25;5095482;28;20020;-64
2022/06/13 08:23:18;;;;;;;5.88;4.60;;;;;;;20.69;67.84;96350.09;5095497;28;20020;-63
2022/06/13 08:25:44;;;;;;;6.10;4.18;;;;;;;20.68;68.66;96341.28;5095438;28;20547;-63
2022/06/13 08:28:11;;;;;;;5.43;4.20;;;;;;;20.78;69.35;96344.03;5095310;28;20024;-63
2022/06/13 08:30:42;;;;;;;4.63;4.22;;;;;;;20.84;67.49;96345.34;5095159;28;20496;-63
2022/06/13 08:33:08;;;;;;;11.02;4.47;;;;;;;20.87;68.92;96331.78;5095184;28;20386;-63
2022/06/13 08:35:34;;;;;;;4.80;4.28;;;;;;;20.90;65.63;96328.06;5095141;28;20016;-64
2022/06/13 08:37:59;;;;;;;4.97;4.57;;;;;;;20.99;65.43;96334.41;5095057;28;20088;-63
2022/06/13 08:40:33;;;;;;;7.28;4.20;;;;;;;21.10;65.54;96333.53;5095010;28;20043;-63
2022/06/13 08:43:08;;;;;;;6.28;4.93;;;;;;;21.11;65.91;96333.41;5095027;28;20036;-64
2022/06/13 08:45:42;;;;;;;5.57;5.00;;;;;;;21.10;66.76;96326.38;5094409;28;20024;-64
2022/06/13 08:48:30;;;;;;;7.43;4.32;;;;;;;21.18;66.00;96341.69;5095122;28;20035;-63
2022/06/13 08:51:10;;;;;;;7.30;4.40;;;;;;;21.21;66.34;96334.28;5094861;28;20032;-63
2022/06/13 08:53:52;;;;;;;10.63;4.75;;;;;;;21.33;68.02;96335.06;5094737;28;20397;-64
2022/06/13 08:56:22;;;;;;;7.68;4.80;;;;;;;21.43;67.82;96334.28;5094893;28;20032;-63
2022/06/13 08:58:55;;;;;;;6.40;4.78;;;;;;;21.56;66.68;96323.44;5094761;28;20081;-63
2022/06/13 09:01:40;;;;;;;7.32;4.35;;;;;;;21.74;64.26;96333.44;5094762;28;20500;-64
2022/06/13 09:04:20;;;;;;;5.20;4.40;;;;;;;21.95;64.72;96344.06;5094662;28;20034;-63
2022/06/13 09:06:53;;;;;;;5.50;4.70;;;;;;;22.04;64.05;96350.41;5094540;28;20032;-63
2022/06/13 09:09:40;;;;;;;15.10;4.70;;;;;;;22.07;63.98;96342.97;5094457;28;20059;-63
2022/06/13 09:12:09;;;;;;;5.68;4.40;;;;;;;22.11;64.31;96343.56;5094458;28;20031;-64
2022/06/13 09:14:57;;;;;;;6.82;4.55;;;;;;;22.12;65.46;96344.41;5094201;28;20028;-63
2022/06/13 09:17:28;;;;;;;6.93;5.50;;;;;;;22.18;65.51;96350.03;5094051;28;20063;-63
2022/06/13 09:19:57;;;;;;;6.53;5.15;;;;;;;22.15;65.59;96346.81;5094228;28;20039;-64
2022/06/13 09:22:44;;;;;;;7.87;4.93;;;;;;;22.05;63.62;96347.59;5094220;28;20051;-62
2022/06/13 09:25:14;;;;;;;11.02;5.28;;;;;;;21.95;64.86;96342.22;5094319;28;20024;-63
2022/06/13 09:27:57;;;;;;;5.43;4.90;;;;;;;21.90;64.20;96341.81;5094185;28;20061;-63
2022/06/13 09:30:30;;;;;;;7.15;5.10;;;;;;;21.84;64.50;96332.53;5094063;28;20044;-63
2022/06/13 09:32:59;;;;;;;8.50;5.35;;;;;;;21.75;64.65;96335.13;5094031;28;20028;-63
2022/06/13 09:35:36;;;;;;;5.50;5.00;;;;;;;21.70;65.92;96333.72;5094035;28;20107;-64
2022/06/13 09:38:31;;;;;;;8.13;5.40;;;;;;;21.66;63.95;96329.63;5094017;28;20039;-63
2022/06/13 09:41:03;;;;;;;6.70;4.68;;;;;;;21.56;64.12;96332.25;5093964;28;20024;-63
2022/06/13 09:43:46;;;;;;;9.02;5.20;;;;;;;21.44;65.08;96333.31;5093923;28;20019;-64
2022/06/13 09:46:20;;;;;;;6.50;4.75;;;;;;;21.40;65.63;96338.03;5093825;28;20179;-63
2022/06/13 09:49:00;;;;;;;8.00;5.10;;;;;;;21.28;65.59;96352.41;5093890;28;20078;-63
2022/06/13 09:51:52;;;;;;;7.90;5.10;;;;;;;21.16;66.29;96339.16;5093735;28;20553;-64
2022/06/13 09:54:30;;;;;;;5.20;4.70;;;;;;;21.19;66.78;96338.91;5093631;28;20287;-64
2022/06/13 09:57:08;;;;;;;14.38;5.72;;;;;;;21.22;67.08;96337.78;5092829;28;20032;-63
2022/06/13 10:00:12;;;;;;;10.02;4.80;;;;;;;21.25;67.67;96340.19;5093663;28;20032;-63
2022/06/13 10:02:56;;;;;;;12.60;5.00;;;;;;;21.29;67.81;96335.47;5092971;28;20043;-63
2022/06/13 10:05:36;;;;;;;7.57;5.25;;;;;;;21.41;65.56;96333.56;5093541;28;20028;-64
2022/06/13 10:08:17;;;;;;;10.95;5.15;;;;;;;21.56;67.48;96344.72;5093563;28;20107;-64
2022/06/13 10:11:13;;;;;;;8.50;5.03;;;;;;;21.67;66.00;96338.47;5093640;28;20024;-64
2022/06/13 10:14:06;;;;;;;7.22;4.78;;;;;;;21.69;63.76;96339.16;5079031;28;20032;-63
2022/06/13 10:16:47;;;;;;;5.30;4.43;;;;;;;21.79;63.96;96341.91;5093220;28;20052;-63
2022/06/13 10:19:36;;;;;;;;;;;;;;;21.92;64.81;96345.19;5093834;28;20036;-63
2022/06/13 10:22:15;;;;;;;9.45;5.13;;;;;;;22.06;67.26;96353.75;5093410;28;19912;-64
2022/06/13 10:25:30;;;;;;;7.88;4.25;;;;;;;22.25;66.35;96354.81;5093251;28;20040;-63
2022/06/13 10:28:27;;;;;;;8.18;4.55;;;;;;;22.46;64.16;96352.06;5055182;28;20043;-64
2022/06/13 10:31:34;;;;;;;8.50;4.57;;;;;;;22.60;63.97;96353.50;5093266;28;20107;-64
2022/06/13 10:34:17;;;;;;;6.03;4.40;;;;;;;22.73;61.56;96347.91;5065330;28;20040;-63
2022/06/13 10:37:12;;;;;;;6.32;4.63;;;;;;;22.94;61.70;96349.59;5093096;28;20032;-63
2022/06/13 10:39:38;;;;;;;5.70;4.55;;;;;;;23.09;62.45;96342.81;5083999;28;20071;-64
2022/06/13 10:42:09;;;;;;;5.47;4.40;;;;;;;23.27;62.45;96344.75;5093190;28;20048;-64
2022/06/13 10:44:37;;;;;;;5.88;5.30;;;;;;;23.47;60.40;96332.28;5093174;28;20031;-64
2022/06/13 10:47:15;;;;;;;7.88;5.10;;;;;;;23.63;60.64;96328.13;5093087;28;20484;-64
2022/06/13 10:49:54;;;;;;;13.02;5.47;;;;;;;23.79;59.10;96335.53;5093150;28;20107;-64
2022/06/13 10:52:25;;;;;;;6.40;4.35;;;;;;;23.89;58.87;96330.16;5092963;28;20036;-64
2022/06/13 10:55:00;;;;;;;10.38;4.45;;;;;;;23.94;55.40;96329.72;5093030;28;20016;-64
2022/06/13 10:57:39;;;;;;;6.97;4.22;;;;;;;24.16;55.50;96324.97;5093022;28;20040;-64
2022/06/13 11:00:16;;;;;;;8.10;4.78;;;;;;;24.51;57.90;96320.69;5093122;28;20035;-64
2022/06/13 11:02:42;;;;;;;6.18;4.95;;;;;;;24.95;57.57;96317.28;5092951;28;20043;-64
2022/06/13 11:05:21;;;;;;;6.82;4.82;;;;;;;25.33;54.33;96314.38;5092980;28;20070;-64
2022/06/13 11:08:00;;;;;;;7.07;4.88;;;;;;;25.83;49.91;96306.63;5093649;28;20024;-64
2022/06/13 11:10:38;;;;;;;9.93;5.07;;;;;;;26.24;50.56;96319.34;5096974;28;20057;-65
2022/06/13 11:13:28;;;;;;;6.95;4.63;;;;;;;26.53;49.43;96311.06;5096809;28;20465;-64
2022/06/13 11:24:54;;;;;;;11.70;5.93;;;;;;;26.48;46.23;96308.88;5096903;28;20043;-64
2022/06/13 11:27:40;;;;;;;8.25;4.72;;;;;;;26.24;46.48;96305.97;5096468;28;20021;-64
2022/06/13 11:30:27;;;;;;;7.50;4.57;;;;;;;26.28;49.80;96305.63;5096540;28;20024;-64
2022/06/13 11:33:06;;;;;;;8.02;4.70;;;;;;;26.07;48.91;96307.72;5096260;28;20028;-64
2022/06/13 11:35:37;;;;;;;9.35;4.80;;;;;;;25.78;49.75;96308.97;5096490;28;20069;-64
2022/06/13 11:38:18;;;;;;;8.30;5.10;;;;;;;25.51;49.28;96310.81;5096415;28;20016;-64
2022/06/13 11:40:47;;;;;;;6.38;4.82;;;;;;;25.36;48.19;96314.06;5096150;28;20035;-64
2022/06/13 11:43:38;;;;;;;6.28;4.63;;;;;;;25.39;51.89;96315.59;5096216;28;20028;-64
2022/06/13 11:46:08;;;;;;;5.30;4.68;;;;;;;25.39;51.57;96309.38;5096249;28;20031;-64
2022/06/13 11:48:34;;;;;;;6.82;4.15;;;;;;;25.32;50.68;96302.00;5096036;28;20016;-64
2022/06/13 11:51:04;;;;;;;7.68;4.78;;;;;;;25.28;49.72;96310.50;5096033;28;20016;-64
2022/06/13 11:53:37;;;;;;;6.88;4.50;;;;;;;25.19;50.65;96302.41;5095999;28;20028;-64
2022/06/13 11:56:11;;;;;;;5.28;4.55;;;;;;;25.17;49.12;96300.88;5095907;28;20482;-65
2022/06/13 11:58:41;;;;;;;8.75;4.43;;;;;;;25.17;50.19;96291.03;5095891;28;20028;-64
2022/06/13 12:01:51;;;;;;;6.60;4.67;;;;;;;25.41;49.24;96296.69;5095826;28;20047;-64
2022/06/13 12:04:20;;;;;;;10.27;4.32;;;;;;;25.64;50.78;96280.13;5091763;28;20036;-64
2022/06/13 12:06:56;;;;;;;12.95;4.85;;;;;;;25.70;49.13;96279.47;5095737;28;20537;-64
2022/06/13 12:09:31;;;;;;;5.28;4.10;;;;;;;25.73;47.74;96287.19;5095623;28;20027;-64
2022/06/13 12:12:00;;;;;;;5.55;4.72;;;;;;;25.81;46.85;96281.03;5095704;28;20039;-64
2022/06/13 12:14:28;;;;;;;5.38;4.03;;;;;;;25.93;47.45;96285.09;5095480;28;20032;-64
2022/06/13 12:17:17;;;;;;;5.88;4.00;;;;;;;25.98;46.07;96288.13;5095285;28;20044;-65
2022/06/13 12:20:18;;;;;;;7.10;4.47;;;;;;;26.08;46.28;96271.06;5094652;28;20035;-65
2022/06/13 12:23:01;;;;;;;6.05;4.53;;;;;;;26.03;45.34;96268.06;5077883;28;20056;-64
2022/06/13 12:25:38;;;;;;;5.20;4.18;;;;;;;26.03;46.18;96268.88;5095397;28;20052;-64
2022/06/13 12:28:19;;;;;;;7.53;4.38;;;;;;;26.15;47.11;96265.91;5095519;28;20028;-64
2022/06/13 12:31:11;;;;;;;;;;;;;;;26.08;45.00;96265.72;5095733;28;20047;-64